sensor_id;sensor_type;location;lat;lon;timestamp;pressure;altitude;pressure_sealevel;temperature;humidity
49216;BME280;45943;53.148;8.204;2024-02-21T00:01:03;101949.34;;;12.26;100.00
49216;BME280;45943;53.148;8.204;2024-02-21T00:03:31;101951.50;;;12.34;100.00
49216;BME280;45943;53.148;8.204;2024-02-21T00:05:57;101949.38;;;12.39;100.00
49216;BME280;45943;53.148;8.204;2024-02-21T00:08:23;101949.78;;;12.33;100.00
49216;BME280;45943;53.148;8.204;2024-02-21T00:10:49;101938.03;;;12.47;100.00
49216;BME280;45943;53.148;8.204;2024-02-21T00:13:15;101940.31;;;12.40;100.00
49216;BME280;45943;53.148;8.204;2024-02-21T00:15:41;101944.28;;;12.22;100.00
49216;BME280;45943;53.148;8.204;2024-02-21T00:18:10;101939.88;;;12.46;100.00
49216;BME280;45943;53.148;8.204;2024-02-21T00:20:36;101948.69;;;12.48;100.00
49216;BME280;45943;53.148;8.204;2024-02-21T00:23:03;101939.75;;;12.48;100.00
49216;BME280;45943;53.148;8.204;2024-02-21T00:25:29;101941.03;;;12.55;100.00
49216;BME280;45943;53.148;8.204;2024-02-21T00:27:55;101940.22;;;12.42;100.00
49216;BME280;45943;53.148;8.204;2024-02-21T00:30:21;101938.47;;;12.53;100.00
49216;BME280;45943;53.148;8.204;2024-02-21T00:32:47;101954.19;;;12.59;100.00
49216;BME280;45943;53.148;8.204;2024-02-21T00:35:14;101937.25;;;12.57;100.00
49216;BME280;45943;53.148;8.204;2024-02-21T00:37:40;101932.00;;;12.56;100.00
49216;BME280;45943;53.148;8.204;2024-02-21T00:40:06;101929.19;;;12.57;100.00
49216;BME280;45943;53.148;8.204;2024-02-21T00:42:32;101932.75;;;12.45;100.00
49216;BME280;45943;53.148;8.204;2024-02-21T00:44:58;101932.53;;;12.48;100.00
49216;BME280;45943;53.148;8.204;2024-02-21T00:47:24;101934.81;;;12.54;100.00
49216;BME280;45943;53.148;8.204;2024-02-21T00:49:51;101939.66;;;12.62;100.00
49216;BME280;45943;53.148;8.204;2024-02-21T00:52:17;101928.56;;;12.54;100.00
49216;BME280;45943;53.148;8.204;2024-02-21T00:54:43;101924.16;;;12.53;100.00
49216;BME280;45943;53.148;8.204;2024-02-21T00:57:09;101917.44;;;12.58;100.00
49216;BME280;45943;53.148;8.204;2024-02-21T00:59:36;101913.91;;;12.58;100.00
49216;BME280;45943;53.148;8.204;2024-02-21T01:02:03;101911.56;;;12.53;100.00
49216;BME280;45943;53.148;8.204;2024-02-21T01:04:29;101914.38;;;12.39;100.00
49216;BME280;45943;53.148;8.204;2024-02-21T01:06:55;101910.28;;;12.59;100.00
49216;BME280;45943;53.148;8.204;2024-02-21T01:09:21;101883.78;;;12.53;100.00
49216;BME280;45943;53.148;8.204;2024-02-21T01:11:47;101883.44;;;12.57;100.00
49216;BME280;45943;53.148;8.204;2024-02-21T01:14:13;101890.44;;;12.60;100.00
49216;BME280;45943;53.148;8.204;2024-02-21T01:16:39;101894.84;;;12.48;100.00
49216;BME280;45943;53.148;8.204;2024-02-21T01:19:05;101878.09;;;12.45;100.00
49216;BME280;45943;53.148;8.204;2024-02-21T01:21:31;101878.59;;;12.62;100.00
49216;BME280;45943;53.148;8.204;2024-02-21T01:23:57;101876.22;;;12.71;100.00
49216;BME280;45943;53.148;8.204;2024-02-21T01:26:23;101857.91;;;12.63;100.00
49216;BME280;45943;53.148;8.204;2024-02-21T01:28:49;101848.56;;;12.69;100.00
49216;BME280;45943;53.148;8.204;2024-02-21T01:31:15;101815.28;;;12.70;100.00
49216;BME280;45943;53.148;8.204;2024-02-21T01:33:41;101790.91;;;12.71;100.00
49216;BME280;45943;53.148;8.204;2024-02-21T01:36:08;101811.19;;;12.64;100.00
49216;BME280;45943;53.148;8.204;2024-02-21T01:38:34;101806.66;;;12.64;100.00
49216;BME280;45943;53.148;8.204;2024-02-21T01:41:00;101800.16;;;12.43;100.00
49216;BME280;45943;53.148;8.204;2024-02-21T01:43:26;101796.19;;;12.49;100.00
49216;BME280;45943;53.148;8.204;2024-02-21T01:45:53;101791.41;;;12.52;100.00
49216;BME280;45943;53.148;8.204;2024-02-21T01:48:21;101794.91;;;12.42;100.00
49216;BME280;45943;53.148;8.204;2024-02-21T01:50:51;101787.44;;;12.45;100.00
49216;BME280;45943;53.148;8.204;2024-02-21T01:53:22;101790.03;;;12.47;100.00
49216;BME280;45943;53.148;8.204;2024-02-21T01:55:52;101780.19;;;12.58;100.00
49216;BME280;45943;53.148;8.204;2024-02-21T01:58:18;101781.63;;;12.51;100.00
49216;BME280;45943;53.148;8.204;2024-02-21T02:00:46;101765.97;;;12.56;100.00
49216;BME280;45943;53.148;8.204;2024-02-21T02:03:13;101765.59;;;12.50;100.00
49216;BME280;45943;53.148;8.204;2024-02-21T02:05:43;101761.56;;;12.55;100.00
49216;BME280;45943;53.148;8.204;2024-02-21T02:08:10;101770.19;;;12.60;100.00
49216;BME280;45943;53.148;8.204;2024-02-21T02:10:36;101787.22;;;12.48;100.00
49216;BME280;45943;53.148;8.204;2024-02-21T02:13:03;101772.28;;;12.44;100.00
49216;BME280;45943;53.148;8.204;2024-02-21T02:15:42;101768.09;;;12.40;100.00
49216;BME280;45943;53.148;8.204;2024-02-21T02:18:13;101768.06;;;12.53;100.00
49216;BME280;45943;53.148;8.204;2024-02-21T02:20:40;101779.50;;;12.44;100.00
49216;BME280;45943;53.148;8.204;2024-02-21T02:23:07;101793.94;;;12.43;100.00
49216;BME280;45943;53.148;8.204;2024-02-21T02:25:40;101784.75;;;12.45;100.00
49216;BME280;45943;53.148;8.204;2024-02-21T02:28:06;101785.81;;;12.55;100.00
49216;BME280;45943;53.148;8.204;2024-02-21T02:30:36;101788.72;;;12.52;100.00
49216;BME280;45943;53.148;8.204;2024-02-21T02:33:05;101778.28;;;12.48;100.00
49216;BME280;45943;53.148;8.204;2024-02-21T02:35:32;101776.75;;;12.56;100.00
49216;BME280;45943;53.148;8.204;2024-02-21T02:38:00;101772.16;;;12.46;100.00
49216;BME280;45943;53.148;8.204;2024-02-21T02:40:26;101774.66;;;12.49;100.00
49216;BME280;45943;53.148;8.204;2024-02-21T02:42:52;101780.22;;;12.46;100.00
49216;BME280;45943;53.148;8.204;2024-02-21T02:45:21;101778.94;;;12.51;100.00
49216;BME280;45943;53.148;8.204;2024-02-21T02:47:49;101779.06;;;12.50;100.00
49216;BME280;45943;53.148;8.204;2024-02-21T02:50:15;101772.84;;;12.37;100.00
49216;BME280;45943;53.148;8.204;2024-02-21T02:52:41;101779.25;;;12.47;100.00
49216;BME280;45943;53.148;8.204;2024-02-21T02:55:07;101779.94;;;12.38;100.00
49216;BME280;45943;53.148;8.204;2024-02-21T02:57:33;101772.81;;;12.49;100.00
49216;BME280;45943;53.148;8.204;2024-02-21T02:59:59;101763.22;;;12.45;100.00
49216;BME280;45943;53.148;8.204;2024-02-21T03:02:25;101760.91;;;12.41;100.00
49216;BME280;45943;53.148;8.204;2024-02-21T03:04:51;101773.69;;;12.50;100.00
49216;BME280;45943;53.148;8.204;2024-02-21T03:07:17;101767.75;;;12.45;100.00
49216;BME280;45943;53.148;8.204;2024-02-21T03:09:43;101761.41;;;12.46;100.00
49216;BME280;45943;53.148;8.204;2024-02-21T03:12:09;101770.22;;;12.48;100.00
49216;BME280;45943;53.148;8.204;2024-02-21T03:14:35;101771.41;;;12.44;100.00
49216;BME280;45943;53.148;8.204;2024-02-21T03:17:01;101766.63;;;12.23;100.00
49216;BME280;45943;53.148;8.204;2024-02-21T03:19:28;101762.34;;;12.21;100.00
49216;BME280;45943;53.148;8.204;2024-02-21T03:21:54;101762.47;;;12.06;100.00
49216;BME280;45943;53.148;8.204;2024-02-21T03:24:21;101755.16;;;12.21;100.00
49216;BME280;45943;53.148;8.204;2024-02-21T03:26:47;101755.16;;;12.09;100.00
49216;BME280;45943;53.148;8.204;2024-02-21T03:29:15;101758.81;;;12.07;100.00
49216;BME280;45943;53.148;8.204;2024-02-21T03:31:42;101756.44;;;12.16;100.00
49216;BME280;45943;53.148;8.204;2024-02-21T03:34:11;101764.00;;;12.11;100.00
49216;BME280;45943;53.148;8.204;2024-02-21T03:36:37;101767.84;;;12.06;100.00
49216;BME280;45943;53.148;8.204;2024-02-21T03:39:04;101751.41;;;11.98;100.00
49216;BME280;45943;53.148;8.204;2024-02-21T03:41:30;101750.22;;;12.02;100.00
49216;BME280;45943;53.148;8.204;2024-02-21T03:43:56;101758.63;;;12.11;100.00
49216;BME280;45943;53.148;8.204;2024-02-21T03:46:23;101756.47;;;12.03;100.00
49216;BME280;45943;53.148;8.204;2024-02-21T03:48:50;101754.44;;;11.94;100.00
49216;BME280;45943;53.148;8.204;2024-02-21T03:51:16;101743.88;;;12.03;100.00
49216;BME280;45943;53.148;8.204;2024-02-21T03:53:43;101741.13;;;11.92;100.00
49216;BME280;45943;53.148;8.204;2024-02-21T03:56:09;101744.31;;;11.97;100.00
49216;BME280;45943;53.148;8.204;2024-02-21T03:58:35;101749.56;;;11.99;100.00
49216;BME280;45943;53.148;8.204;2024-02-21T04:01:01;101738.50;;;12.03;100.00
49216;BME280;45943;53.148;8.204;2024-02-21T04:03:28;101740.44;;;11.89;100.00
49216;BME280;45943;53.148;8.204;2024-02-21T04:05:54;101752.84;;;11.91;100.00
49216;BME280;45943;53.148;8.204;2024-02-21T04:08:20;101757.25;;;11.92;100.00
49216;BME280;45943;53.148;8.204;2024-02-21T04:10:46;101758.53;;;11.87;100.00
49216;BME280;45943;53.148;8.204;2024-02-21T04:13:12;101748.72;;;11.98;100.00
49216;BME280;45943;53.148;8.204;2024-02-21T04:15:38;101752.59;;;11.94;100.00
49216;BME280;45943;53.148;8.204;2024-02-21T04:18:05;101760.13;;;11.89;100.00
49216;BME280;45943;53.148;8.204;2024-02-21T04:20:31;101752.19;;;11.88;100.00
49216;BME280;45943;53.148;8.204;2024-02-21T04:22:57;101761.09;;;11.88;100.00
49216;BME280;45943;53.148;8.204;2024-02-21T04:25:24;101750.53;;;11.98;100.00
49216;BME280;45943;53.148;8.204;2024-02-21T04:27:50;101745.38;;;12.07;100.00
49216;BME280;45943;53.148;8.204;2024-02-21T04:30:16;101743.44;;;12.10;100.00
49216;BME280;45943;53.148;8.204;2024-02-21T04:32:42;101733.34;;;12.00;100.00
49216;BME280;45943;53.148;8.204;2024-02-21T04:35:08;101742.16;;;12.02;100.00
49216;BME280;45943;53.148;8.204;2024-02-21T04:37:34;101732.59;;;11.98;100.00
49216;BME280;45943;53.148;8.204;2024-02-21T04:40:00;101733.44;;;11.99;100.00
49216;BME280;45943;53.148;8.204;2024-02-21T04:42:26;101734.78;;;11.81;100.00
49216;BME280;45943;53.148;8.204;2024-02-21T04:44:52;101742.59;;;11.96;100.00
49216;BME280;45943;53.148;8.204;2024-02-21T04:47:18;101735.81;;;12.03;100.00
49216;BME280;45943;53.148;8.204;2024-02-21T04:49:45;101738.16;;;12.08;100.00
49216;BME280;45943;53.148;8.204;2024-02-21T04:52:12;101743.47;;;11.97;100.00
49216;BME280;45943;53.148;8.204;2024-02-21T04:54:38;101739.25;;;12.05;100.00
49216;BME280;45943;53.148;8.204;2024-02-21T04:57:04;101741.94;;;12.05;100.00
49216;BME280;45943;53.148;8.204;2024-02-21T04:59:30;101733.88;;;12.05;100.00
49216;BME280;45943;53.148;8.204;2024-02-21T05:01:56;101734.22;;;12.01;100.00
49216;BME280;45943;53.148;8.204;2024-02-21T05:04:22;101743.75;;;12.05;100.00
49216;BME280;45943;53.148;8.204;2024-02-21T05:06:48;101740.13;;;11.93;100.00
49216;BME280;45943;53.148;8.204;2024-02-21T05:09:14;101740.13;;;11.93;100.00
49216;BME280;45943;53.148;8.204;2024-02-21T05:11:41;101728.84;;;12.01;100.00
49216;BME280;45943;53.148;8.204;2024-02-21T05:14:07;101727.31;;;11.97;100.00
49216;BME280;45943;53.148;8.204;2024-02-21T05:16:33;101715.72;;;11.96;100.00
49216;BME280;45943;53.148;8.204;2024-02-21T05:18:59;101719.06;;;12.00;100.00
49216;BME280;45943;53.148;8.204;2024-02-21T05:21:25;101720.97;;;11.98;100.00
49216;BME280;45943;53.148;8.204;2024-02-21T05:23:51;101721.41;;;12.04;100.00
49216;BME280;45943;53.148;8.204;2024-02-21T05:26:24;101716.16;;;11.90;100.00
49216;BME280;45943;53.148;8.204;2024-02-21T05:28:51;101703.09;;;12.10;100.00
49216;BME280;45943;53.148;8.204;2024-02-21T05:31:17;101707.94;;;12.04;100.00
49216;BME280;45943;53.148;8.204;2024-02-21T05:33:44;101707.75;;;11.95;100.00
49216;BME280;45943;53.148;8.204;2024-02-21T05:36:11;101710.28;;;12.09;100.00
49216;BME280;45943;53.148;8.204;2024-02-21T05:38:38;101697.81;;;12.08;100.00
49216;BME280;45943;53.148;8.204;2024-02-21T05:41:04;101693.84;;;12.14;100.00
49216;BME280;45943;53.148;8.204;2024-02-21T05:43:30;101696.09;;;12.20;100.00
49216;BME280;45943;53.148;8.204;2024-02-21T05:45:56;101688.75;;;12.22;100.00
49216;BME280;45943;53.148;8.204;2024-02-21T05:48:23;101693.09;;;12.12;100.00
49216;BME280;45943;53.148;8.204;2024-02-21T05:50:49;101692.97;;;12.13;100.00
49216;BME280;45943;53.148;8.204;2024-02-21T05:53:15;101677.13;;;12.21;100.00
49216;BME280;45943;53.148;8.204;2024-02-21T05:55:41;101651.41;;;11.93;100.00
49216;BME280;45943;53.148;8.204;2024-02-21T05:58:07;101686.50;;;12.16;100.00
49216;BME280;45943;53.148;8.204;2024-02-21T06:00:37;101685.41;;;12.18;100.00
49216;BME280;45943;53.148;8.204;2024-02-21T06:03:03;101687.34;;;12.16;100.00
49216;BME280;45943;53.148;8.204;2024-02-21T06:05:29;101688.88;;;12.20;100.00
49216;BME280;45943;53.148;8.204;2024-02-21T06:07:56;101684.03;;;12.13;100.00
49216;BME280;45943;53.148;8.204;2024-02-21T06:10:22;101693.47;;;12.18;100.00
49216;BME280;45943;53.148;8.204;2024-02-21T06:12:49;101682.84;;;12.17;100.00
49216;BME280;45943;53.148;8.204;2024-02-21T06:15:15;101680.81;;;12.07;100.00
49216;BME280;45943;53.148;8.204;2024-02-21T06:17:41;101678.50;;;12.03;100.00
49216;BME280;45943;53.148;8.204;2024-02-21T06:20:07;101674.03;;;12.15;100.00
49216;BME280;45943;53.148;8.204;2024-02-21T06:22:34;101683.31;;;12.11;100.00
49216;BME280;45943;53.148;8.204;2024-02-21T06:25:00;101682.63;;;12.20;100.00
49216;BME280;45943;53.148;8.204;2024-02-21T06:27:37;101684.00;;;12.25;100.00
49216;BME280;45943;53.148;8.204;2024-02-21T06:30:03;101687.72;;;12.12;100.00
49216;BME280;45943;53.148;8.204;2024-02-21T06:36:13;101692.53;;;12.19;100.00
49216;BME280;45943;53.148;8.204;2024-02-21T06:38:51;101691.56;;;12.20;100.00
49216;BME280;45943;53.148;8.204;2024-02-21T06:41:25;101679.47;;;12.26;100.00
49216;BME280;45943;53.148;8.204;2024-02-21T06:44:02;101676.41;;;12.19;100.00
49216;BME280;45943;53.148;8.204;2024-02-21T06:46:28;101676.97;;;12.12;100.00
49216;BME280;45943;53.148;8.204;2024-02-21T06:48:55;101673.34;;;12.24;100.00
49216;BME280;45943;53.148;8.204;2024-02-21T06:51:48;101671.94;;;12.31;100.00
49216;BME280;45943;53.148;8.204;2024-02-21T07:00:44;101665.91;;;12.27;100.00
49216;BME280;45943;53.148;8.204;2024-02-21T07:03:16;101673.78;;;12.18;100.00
49216;BME280;45943;53.148;8.204;2024-02-21T07:05:42;101682.34;;;12.12;100.00
49216;BME280;45943;53.148;8.204;2024-02-21T07:08:08;101682.09;;;12.15;100.00
49216;BME280;45943;53.148;8.204;2024-02-21T07:11:36;101683.94;;;12.14;100.00
49216;BME280;45943;53.148;8.204;2024-02-21T07:13:52;101673.22;;;12.25;100.00
49216;BME280;45943;53.148;8.204;2024-02-21T07:19:58;101678.63;;;12.25;100.00
49216;BME280;45943;53.148;8.204;2024-02-21T07:22:51;101677.81;;;12.36;100.00
49216;BME280;45943;53.148;8.204;2024-02-21T07:25:16;101679.16;;;12.30;100.00
49216;BME280;45943;53.148;8.204;2024-02-21T07:27:52;101684.53;;;12.30;100.00
49216;BME280;45943;53.148;8.204;2024-02-21T07:30:30;101681.72;;;12.32;100.00
49216;BME280;45943;53.148;8.204;2024-02-21T07:32:56;101692.06;;;12.25;100.00
49216;BME280;45943;53.148;8.204;2024-02-21T07:42:10;101685.66;;;12.15;100.00
49216;BME280;45943;53.148;8.204;2024-02-21T07:44:42;101680.69;;;12.22;100.00
49216;BME280;45943;53.148;8.204;2024-02-21T07:47:13;101681.31;;;12.25;100.00
49216;BME280;45943;53.148;8.204;2024-02-21T07:50:35;101678.19;;;12.19;100.00
49216;BME280;45943;53.148;8.204;2024-02-21T07:53:33;101679.59;;;12.24;100.00
49216;BME280;45943;53.148;8.204;2024-02-21T07:55:59;101683.56;;;12.19;100.00
49216;BME280;45943;53.148;8.204;2024-02-21T07:58:25;101681.06;;;12.28;100.00
49216;BME280;45943;53.148;8.204;2024-02-21T08:00:54;101675.41;;;12.20;100.00
49216;BME280;45943;53.148;8.204;2024-02-21T08:03:32;101667.44;;;12.19;100.00
49216;BME280;45943;53.148;8.204;2024-02-21T08:06:03;101668.09;;;12.22;100.00
49216;BME280;45943;53.148;8.204;2024-02-21T08:08:37;101665.56;;;12.32;100.00
49216;BME280;45943;53.148;8.204;2024-02-21T08:11:03;101656.81;;;12.17;100.00
49216;BME280;45943;53.148;8.204;2024-02-21T08:13:29;101657.88;;;12.15;100.00
49216;BME280;45943;53.148;8.204;2024-02-21T08:15:55;101659.38;;;12.19;100.00
49216;BME280;45943;53.148;8.204;2024-02-21T08:18:25;101657.16;;;12.13;100.00
49216;BME280;45943;53.148;8.204;2024-02-21T08:20:57;101646.69;;;12.21;100.00
49216;BME280;45943;53.148;8.204;2024-02-21T08:23:23;101649.88;;;12.26;100.00
49216;BME280;45943;53.148;8.204;2024-02-21T08:25:50;101659.53;;;12.04;100.00
49216;BME280;45943;53.148;8.204;2024-02-21T08:28:16;101650.81;;;12.14;100.00
49216;BME280;45943;53.148;8.204;2024-02-21T08:30:45;101648.56;;;12.31;100.00
49216;BME280;45943;53.148;8.204;2024-02-21T08:33:22;101644.44;;;12.39;100.00
49216;BME280;45943;53.148;8.204;2024-02-21T08:35:51;101643.72;;;12.48;100.00
49216;BME280;45943;53.148;8.204;2024-02-21T08:38:17;101642.28;;;12.20;100.00
49216;BME280;45943;53.148;8.204;2024-02-21T08:40:44;101630.47;;;12.33;100.00
49216;BME280;45943;53.148;8.204;2024-02-21T08:43:12;101626.69;;;12.36;100.00
49216;BME280;45943;53.148;8.204;2024-02-21T08:46:12;101626.13;;;12.44;100.00
49216;BME280;45943;53.148;8.204;2024-02-21T08:49:11;101630.47;;;12.33;100.00
49216;BME280;45943;53.148;8.204;2024-02-21T08:51:37;101616.56;;;12.40;100.00
49216;BME280;45943;53.148;8.204;2024-02-21T08:54:18;101626.81;;;12.34;100.00
49216;BME280;45943;53.148;8.204;2024-02-21T08:56:56;101614.59;;;12.30;100.00
49216;BME280;45943;53.148;8.204;2024-02-21T08:59:22;101619.78;;;12.21;100.00
49216;BME280;45943;53.148;8.204;2024-02-21T09:01:52;101618.13;;;12.07;100.00
49216;BME280;45943;53.148;8.204;2024-02-21T09:04:18;101621.03;;;12.04;100.00
49216;BME280;45943;53.148;8.204;2024-02-21T09:06:45;101617.72;;;12.24;100.00
49216;BME280;45943;53.148;8.204;2024-02-21T09:09:15;101620.47;;;12.12;100.00
49216;BME280;45943;53.148;8.204;2024-02-21T09:11:41;101620.41;;;12.00;100.00
49216;BME280;45943;53.148;8.204;2024-02-21T09:14:33;101613.16;;;12.14;100.00
49216;BME280;45943;53.148;8.204;2024-02-21T09:17:43;101601.38;;;12.03;100.00
49216;BME280;45943;53.148;8.204;2024-02-21T09:20:15;101609.53;;;12.26;100.00
49216;BME280;45943;53.148;8.204;2024-02-21T09:22:46;101603.50;;;12.11;100.00
49216;BME280;45943;53.148;8.204;2024-02-21T09:25:20;101608.03;;;11.98;100.00
49216;BME280;45943;53.148;8.204;2024-02-21T09:27:56;101615.22;;;12.10;100.00
49216;BME280;45943;53.148;8.204;2024-02-21T09:30:24;101603.50;;;12.11;100.00
49216;BME280;45943;53.148;8.204;2024-02-21T09:32:50;101603.88;;;12.18;100.00
49216;BME280;45943;53.148;8.204;2024-02-21T09:35:16;101603.53;;;12.22;100.00
49216;BME280;45943;53.148;8.204;2024-02-21T09:37:42;101604.16;;;12.26;100.00
49216;BME280;45943;53.148;8.204;2024-02-21T09:40:08;101599.41;;;12.29;100.00
49216;BME280;45943;53.148;8.204;2024-02-21T09:42:38;101601.63;;;12.35;100.00
49216;BME280;45943;53.148;8.204;2024-02-21T09:45:15;101587.19;;;12.37;100.00
49216;BME280;45943;53.148;8.204;2024-02-21T09:50:56;101583.59;;;12.25;100.00
49216;BME280;45943;53.148;8.204;2024-02-21T09:53:50;101579.03;;;12.14;100.00
49216;BME280;45943;53.148;8.204;2024-02-21T09:56:25;101564.53;;;12.28;100.00
49216;BME280;45943;53.148;8.204;2024-02-21T09:58:51;101551.31;;;12.25;100.00
49216;BME280;45943;53.148;8.204;2024-02-21T10:01:17;101555.97;;;12.23;100.00
49216;BME280;45943;53.148;8.204;2024-02-21T10:03:43;101546.53;;;12.17;100.00
49216;BME280;45943;53.148;8.204;2024-02-21T10:06:15;101556.09;;;12.21;100.00
49216;BME280;45943;53.148;8.204;2024-02-21T10:08:54;101555.13;;;12.22;100.00
49216;BME280;45943;53.148;8.204;2024-02-21T10:11:35;101557.41;;;12.16;100.00
49216;BME280;45943;53.148;8.204;2024-02-21T10:14:07;101539.78;;;12.12;100.00
49216;BME280;45943;53.148;8.204;2024-02-21T10:16:33;101543.84;;;12.17;100.00
49216;BME280;45943;53.148;8.204;2024-02-21T10:19:00;101534.69;;;12.20;100.00
49216;BME280;45943;53.148;8.204;2024-02-21T10:21:28;101534.94;;;12.28;100.00
49216;BME280;45943;53.148;8.204;2024-02-21T10:24:03;101544.63;;;12.30;100.00
49216;BME280;45943;53.148;8.204;2024-02-21T10:37:06;101524.81;;;12.31;100.00
49216;BME280;45943;53.148;8.204;2024-02-21T10:39:44;101527.41;;;12.09;100.00
49216;BME280;45943;53.148;8.204;2024-02-21T10:42:29;101517.69;;;12.19;100.00
49216;BME280;45943;53.148;8.204;2024-02-21T10:45:00;101510.13;;;12.24;100.00
49216;BME280;45943;53.148;8.204;2024-02-21T10:47:30;101511.38;;;12.31;100.00
49216;BME280;45943;53.148;8.204;2024-02-21T10:50:02;101511.38;;;12.31;100.00
49216;BME280;45943;53.148;8.204;2024-02-21T10:55:31;101490.97;;;12.40;100.00
49216;BME280;45943;53.148;8.204;2024-02-21T10:58:04;101496.72;;;12.47;100.00
49216;BME280;45943;53.148;8.204;2024-02-21T11:00:30;101498.06;;;12.41;100.00
49216;BME280;45943;53.148;8.204;2024-02-21T11:02:59;101489.16;;;12.52;100.00
49216;BME280;45943;53.148;8.204;2024-02-21T11:05:25;101483.78;;;12.63;100.00
49216;BME280;45943;53.148;8.204;2024-02-21T11:07:53;101472.41;;;12.82;100.00
49216;BME280;45943;53.148;8.204;2024-02-21T11:10:20;101461.50;;;12.95;100.00
49216;BME280;45943;53.148;8.204;2024-02-21T11:12:49;101459.91;;;13.03;100.00
49216;BME280;45943;53.148;8.204;2024-02-21T11:15:18;101458.69;;;13.18;100.00
49216;BME280;45943;53.148;8.204;2024-02-21T11:17:53;101442.75;;;13.15;100.00
49216;BME280;45943;53.148;8.204;2024-02-21T11:20:19;101440.91;;;13.16;100.00
49216;BME280;45943;53.148;8.204;2024-02-21T11:22:46;101433.34;;;13.21;100.00
49216;BME280;45943;53.148;8.204;2024-02-21T11:25:20;101425.94;;;13.34;100.00
49216;BME280;45943;53.148;8.204;2024-02-21T11:27:47;101427.19;;;13.30;100.00
49216;BME280;45943;53.148;8.204;2024-02-21T11:30:13;101415.94;;;13.14;100.00
49216;BME280;45943;53.148;8.204;2024-02-21T11:32:40;101413.38;;;13.24;100.00
49216;BME280;45943;53.148;8.204;2024-02-21T11:35:06;101409.47;;;13.28;100.00
49216;BME280;45943;53.148;8.204;2024-02-21T11:37:33;101408.72;;;13.26;100.00
49216;BME280;45943;53.148;8.204;2024-02-21T11:40:00;101411.50;;;13.35;100.00
49216;BME280;45943;53.148;8.204;2024-02-21T11:42:26;101396.56;;;13.31;100.00
49216;BME280;45943;53.148;8.204;2024-02-21T11:44:54;101400.50;;;13.16;100.00
49216;BME280;45943;53.148;8.204;2024-02-21T11:47:23;101389.41;;;13.09;100.00
49216;BME280;45943;53.148;8.204;2024-02-21T11:49:50;101384.84;;;13.21;100.00
49216;BME280;45943;53.148;8.204;2024-02-21T11:52:22;101406.53;;;13.08;100.00
49216;BME280;45943;53.148;8.204;2024-02-21T11:54:53;101378.75;;;13.08;100.00
49216;BME280;45943;53.148;8.204;2024-02-21T11:57:20;101367.31;;;13.27;100.00
49216;BME280;45943;53.148;8.204;2024-02-21T11:59:46;101366.44;;;13.26;100.00
49216;BME280;45943;53.148;8.204;2024-02-21T12:02:13;101371.94;;;13.36;100.00
49216;BME280;45943;53.148;8.204;2024-02-21T12:04:40;101360.56;;;13.32;100.00
49216;BME280;45943;53.148;8.204;2024-02-21T12:07:07;101358.13;;;13.29;100.00
49216;BME280;45943;53.148;8.204;2024-02-21T12:09:34;101356.94;;;13.22;100.00
49216;BME280;45943;53.148;8.204;2024-02-21T12:12:03;101347.94;;;13.33;100.00
49216;BME280;45943;53.148;8.204;2024-02-21T12:14:33;101324.56;;;13.33;100.00
49216;BME280;45943;53.148;8.204;2024-02-21T12:17:01;101335.03;;;13.47;100.00
49216;BME280;45943;53.148;8.204;2024-02-21T12:19:30;101336.81;;;13.37;100.00
49216;BME280;45943;53.148;8.204;2024-02-21T12:21:58;101319.72;;;13.48;100.00
49216;BME280;45943;53.148;8.204;2024-02-21T12:24:25;101312.63;;;13.47;100.00
49216;BME280;45943;53.148;8.204;2024-02-21T12:26:52;101307.34;;;13.45;100.00
49216;BME280;45943;53.148;8.204;2024-02-21T12:29:19;101301.22;;;13.43;100.00
49216;BME280;45943;53.148;8.204;2024-02-21T12:31:46;101301.03;;;13.35;100.00
49216;BME280;45943;53.148;8.204;2024-02-21T12:34:13;101292.63;;;13.29;100.00
49216;BME280;45943;53.148;8.204;2024-02-21T12:36:43;101290.50;;;13.32;100.00
49216;BME280;45943;53.148;8.204;2024-02-21T12:39:10;101294.84;;;13.24;100.00
49216;BME280;45943;53.148;8.204;2024-02-21T12:41:37;101281.22;;;13.25;100.00
49216;BME280;45943;53.148;8.204;2024-02-21T12:44:04;101271.06;;;13.29;100.00
49216;BME280;45943;53.148;8.204;2024-02-21T12:46:34;101270.59;;;13.24;100.00
49216;BME280;45943;53.148;8.204;2024-02-21T12:49:03;101273.88;;;13.27;100.00
49216;BME280;45943;53.148;8.204;2024-02-21T12:51:33;101258.59;;;13.28;100.00
49216;BME280;45943;53.148;8.204;2024-02-21T12:54:00;101256.13;;;13.25;100.00
49216;BME280;45943;53.148;8.204;2024-02-21T12:56:26;101246.06;;;13.27;100.00
49216;BME280;45943;53.148;8.204;2024-02-21T12:58:58;101229.91;;;13.27;100.00
49216;BME280;45943;53.148;8.204;2024-02-21T13:01:24;101235.91;;;13.30;100.00
49216;BME280;45943;53.148;8.204;2024-02-21T13:03:51;101213.38;;;13.31;100.00
49216;BME280;45943;53.148;8.204;2024-02-21T13:06:17;101216.78;;;13.33;100.00
49216;BME280;45943;53.148;8.204;2024-02-21T13:08:44;101202.38;;;13.23;100.00
49216;BME280;45943;53.148;8.204;2024-02-21T13:11:12;101207.69;;;13.13;100.00
49216;BME280;45943;53.148;8.204;2024-02-21T13:13:38;101186.59;;;13.18;100.00
49216;BME280;45943;53.148;8.204;2024-02-21T13:16:05;101185.00;;;13.16;100.00
49216;BME280;45943;53.148;8.204;2024-02-21T13:18:31;101170.25;;;13.10;100.00
49216;BME280;45943;53.148;8.204;2024-02-21T13:20:58;101168.84;;;13.16;100.00
49216;BME280;45943;53.148;8.204;2024-02-21T13:23:24;101156.44;;;13.25;100.00
49216;BME280;45943;53.148;8.204;2024-02-21T13:25:50;101150.63;;;13.19;100.00